Time;durP1;ratioP1;P1;durP2;ratioP2;P2;SDS_P1;SDS_P2;PMS_P1;PMS_P2;Temp;Humidity;BMP_temperature;BMP_pressure;BME280_temperature;BME280_humidity;BME280_pressure;Samples;Min_cycle;Max_cycle;Signal;HPM_P1;HPM_P2
2022/05/03 00:01:57;;;;;;;13.98;9.75;;;;;;;;;;5036436;28;20450;-65
2022/05/03 00:04:29;;;;;;;11.10;9.60;;;;;;;;;;5036942;28;20570;-65
2022/05/03 00:06:58;;;;;;;11.45;9.27;;;7.90;99.90;;;;;;5041190;28;20430;-65
2022/05/03 00:09:45;;;;;;;12.13;9.80;;;;;;;;;;5038527;28;20431;-64
2022/05/03 00:12:16;;;;;;;12.67;9.97;;;7.80;99.90;;;;;;5039566;28;20427;-65
2022/05/03 00:14:55;;;;;;;12.65;9.13;;;8.10;99.90;;;;;;5021006;28;20460;-65
2022/05/03 00:17:22;;;;;;;10.82;9.43;;;;;;;;;;5025127;28;20447;-65
2022/05/03 00:19:48;;;;;;;11.70;9.27;;;8.00;99.90;;;;;;5038612;28;20454;-65
2022/05/03 00:22:15;;;;;;;11.93;9.40;;;;;;;;;;5038357;28;20427;-66
2022/05/03 00:24:44;;;;;;;11.07;8.50;;;;;;;;;;5039626;28;20427;-65
2022/05/03 00:27:10;;;;;;;11.55;9.02;;;;;;;;;;5035004;28;20953;-66
2022/05/03 00:29:37;;;;;;;10.90;9.70;;;;;;;;;;5039590;28;20431;-65
2022/05/03 00:32:03;;;;;;;10.95;9.07;;;7.70;99.90;;;;;;5037499;28;20499;-65
2022/05/03 00:34:33;;;;;;;11.82;9.50;;;;;;;;;;5040953;28;20423;-66
2022/05/03 00:36:59;;;;;;;12.40;9.60;;;;;;;;;;5038382;28;20434;-66
2022/05/03 00:39:26;;;;;;;11.32;9.45;;;;;;;;;;5034591;28;20530;-66
2022/05/03 00:42:15;;;;;;;11.40;9.13;;;;;;;;;;5036818;28;20430;-66
2022/05/03 00:44:58;;;;;;;11.18;8.75;;;;;;;;;;5035157;28;20435;-64
2022/05/03 00:47:43;;;;;;;10.20;8.50;;;;;;;;;;5034742;28;20903;-65
2022/05/03 00:50:10;;;;;;;10.30;8.48;;;;;;;;;;5038685;28;20944;-65
2022/05/03 00:52:45;;;;;;;11.95;8.77;;;;;;;;;;5031747;28;20407;-66
2022/05/03 00:55:20;;;;;;;9.38;8.38;;;;;;;;;;5026311;28;20427;-65
2022/05/03 00:57:55;;;;;;;13.77;8.90;;;7.40;99.90;;;;;;5017473;28;20522;-65
2022/05/03 01:00:24;;;;;;;11.77;9.48;;;;;;;;;;5038599;28;20582;-66
2022/05/03 01:03:09;;;;;;;11.95;9.55;;;;;;;;;;5037346;28;20927;-66
2022/05/03 01:05:54;;;;;;;12.73;9.80;;;;;;;;;;5037915;28;20913;-65
2022/05/03 01:08:34;;;;;;;11.98;10.35;;;;;;;;;;5037312;28;20427;-66
2022/05/03 01:11:13;;;;;;;11.07;9.87;;;;;;;;;;5031658;28;20506;-66
2022/05/03 01:13:50;;;;;;;14.43;10.35;;;7.00;99.90;;;;;;5033888;28;20465;-65
2022/05/03 01:16:36;;;;;;;12.57;10.30;;;;;;;;;;5040752;28;20407;-66
2022/05/03 01:19:27;;;;;;;14.27;11.40;;;6.80;99.90;;;;;;5035461;28;20427;-65
2022/05/03 01:21:53;;;;;;;13.53;10.70;;;;;;;;;;5036122;28;20426;-66
2022/05/03 01:24:25;;;;;;;14.35;11.65;;;;;;;;;;5039628;28;20431;-65
2022/05/03 01:27:04;;;;;;;16.00;12.30;;;;;;;;;;5033707;28;20435;-65
2022/05/03 01:29:36;;;;;;;14.98;12.50;;;6.70;99.90;;;;;;5039657;28;20501;-65
2022/05/03 01:32:05;;;;;;;14.82;12.13;;;6.80;99.90;;;;;;5036640;28;20517;-64
2022/05/03 01:34:31;;;;;;;13.40;11.30;;;;;;;;;;5036827;28;20427;-64
2022/05/03 01:37:05;;;;;;;13.85;11.52;;;;;;;;;;5039754;28;20822;-64
2022/05/03 01:39:44;;;;;;;14.85;12.05;;;;;;;;;;5034319;28;20438;-65
2022/05/03 01:42:19;;;;;;;16.40;12.35;;;;;;;;;;5032782;28;20454;-65
2022/05/03 01:44:53;;;;;;;13.90;11.50;;;;;;;;;;5037459;28;20434;-65
2022/05/03 01:47:38;;;;;;;13.13;11.57;;;;;;;;;;5037058;28;20423;-65
2022/05/03 01:50:28;;;;;;;12.73;11.32;;;;;;;;;;5035635;28;20451;-65
2022/05/03 01:53:13;;;;;;;14.55;11.65;;;;;;;;;;5023205;28;20431;-65
2022/05/03 01:55:46;;;;;;;12.57;10.63;;;;;;;;;;5037436;28;20427;-64
2022/05/03 01:58:29;;;;;;;13.55;10.82;;;6.40;99.90;;;;;;5038030;28;20454;-63
2022/05/03 02:01:10;;;;;;;13.48;10.75;;;;;;;;;;5035597;28;20434;-65
2022/05/03 02:03:47;;;;;;;12.50;10.40;;;6.30;99.90;;;;;;5038461;28;20494;-65
2022/05/03 02:06:14;;;;;;;16.77;11.03;;;;;;;;;;5018663;28;20644;-63
2022/05/03 02:08:50;;;;;;;15.48;11.85;;;;;;;;;;5037100;28;20419;-64
2022/05/03 02:11:28;;;;;;;14.63;11.18;;;;;;;;;;5018944;28;20942;-66
2022/05/03 02:16:45;;;;;;;12.40;10.18;;;;;;;;;;5028773;28;20431;-64
2022/05/03 02:19:41;;;;;;;14.57;11.43;;;6.30;99.90;;;;;;5034017;28;20504;-64
2022/05/03 02:22:11;;;;;;;12.82;9.98;;;;;;;;;;5032023;28;20427;-65
2022/05/03 02:24:51;;;;;;;13.70;11.43;;;;;;;;;;5038203;28;20456;-65
2022/05/03 02:27:18;;;;;;;15.52;11.45;;;;;;;;;;5024817;28;20434;-65
2022/05/03 02:29:49;;;;;;;15.03;12.63;;;;;;;;;;5037710;28;20554;-65
2022/05/03 02:32:27;;;;;;;17.77;13.03;;;;;;;;;;5035914;28;20662;-65
2022/05/03 02:35:02;;;;;;;14.60;12.93;;;;;;;;;;5031238;28;20430;-65
2022/05/03 02:37:41;;;;;;;15.20;12.60;;;;;;;;;;5038625;28;20601;-65
2022/05/03 02:40:09;;;;;;;16.27;12.77;;;;;;;;;;5034952;28;20429;-65
2022/05/03 02:42:37;;;;;;;15.03;12.83;;;;;;;;;;5035739;28;20493;-66
2022/05/03 02:45:04;;;;;;;15.85;13.02;;;6.10;99.90;;;;;;5037108;28;20426;-65
2022/05/03 02:47:31;;;;;;;17.48;13.93;;;;;;;;;;5036527;28;20498;-65
2022/05/03 02:50:12;;;;;;;18.50;14.35;;;;;;;;;;5033795;28;20490;-66
2022/05/03 02:52:57;;;;;;;17.63;13.70;;;;;;;;;;5034741;28;20431;-65
2022/05/03 02:55:26;;;;;;;17.85;14.38;;;;;;;;;;5038760;28;20423;-65
2022/05/03 02:58:10;;;;;;;16.83;14.25;;;6.20;99.90;;;;;;5037625;28;20465;-65
2022/05/03 03:03:52;;;;;;;18.70;16.00;;;;;;;;;;5040424;28;20435;-64
2022/05/03 03:06:23;;;;;;;18.60;15.20;;;6.60;99.90;;;;;;5040466;28;20496;-64
2022/05/03 03:08:52;;;;;;;17.38;14.57;;;;;;;;;;5041020;28;20434;-65
2022/05/03 03:11:30;;;;;;;19.70;17.23;;;;;;;;;;5038517;28;20465;-65
2022/05/03 03:14:11;;;;;;;17.50;15.70;;;;;;;;;;5039248;28;20490;-65
2022/05/03 03:16:43;;;;;;;19.63;15.75;;;;;;;;;;5041195;28;20427;-65
2022/05/03 03:19:51;;;;;;;20.48;16.75;;;6.60;99.90;;;;;;5041940;28;20415;-65
2022/05/03 03:22:17;;;;;;;20.83;17.10;;;;;;;;;;5036727;28;20485;-64
2022/05/03 03:24:43;;;;;;;20.90;17.08;;;;;;;;;;5043135;28;20399;-65
2022/05/03 03:27:10;;;;;;;20.45;17.45;;;;;;;;;;5034229;28;20448;-64
2022/05/03 03:29:40;;;;;;;21.05;17.88;;;;;;;;;;5040012;28;20439;-64
2022/05/03 03:32:08;;;;;;;21.85;17.85;;;6.70;99.90;;;;;;5037289;28;20485;-63
2022/05/03 03:34:35;;;;;;;21.50;17.60;;;;;;;;;;5040270;28;20444;-65
2022/05/03 03:37:02;;;;;;;21.73;17.05;;;;;;;;;;5040816;28;21093;-65
2022/05/03 03:39:38;;;;;;;22.08;18.25;;;;;;;;;;5038501;28;20407;-64
2022/05/03 03:42:05;;;;;;;21.05;17.70;;;;;;;;;;5037281;28;20819;-64
2022/05/03 03:44:31;;;;;;;22.35;18.60;;;;;;;;;;5038534;28;21035;-64
2022/05/03 03:47:01;;;;;;;24.75;19.63;;;;;;;;;;5040586;28;20427;-65
2022/05/03 03:49:31;;;;;;;20.73;18.27;;;;;;;;;;5040638;28;20775;-63
2022/05/03 03:52:01;;;;;;;23.35;18.70;;;;;;;;;;5039216;28;20902;-64
2022/05/03 03:54:27;;;;;;;22.38;18.00;;;7.20;99.90;;;;;;5039935;28;20496;-64
2022/05/03 03:56:54;;;;;;;23.05;18.42;;;;;;;;;;5039412;28;20482;-65
2022/05/03 03:59:20;;;;;;;21.85;18.08;;;;;;;;;;5039998;28;20415;-65
2022/05/03 04:01:48;;;;;;;21.42;17.67;;;;;;;;;;5036560;28;20502;-64
2022/05/03 04:04:16;;;;;;;20.90;18.63;;;;;;;;;;5040909;28;20430;-64
2022/05/03 04:06:42;;;;;;;21.60;18.33;;;7.50;99.90;;;;;;5055374;28;20434;-64
2022/05/03 04:09:09;;;;;;;22.48;18.27;;;;;;;;;;5034970;28;20465;-65
2022/05/03 04:11:46;;;;;;;22.57;18.60;;;;;;;;;;5039915;28;20484;-65
2022/05/03 04:14:12;;;;;;;22.48;18.38;;;;;;;;;;5037396;28;20837;-65
2022/05/03 04:16:38;;;;;;;25.35;17.48;;;;;;;;;;5039378;28;20423;-64
2022/05/03 04:19:04;;;;;;;20.42;17.20;;;;;;;;;;5038202;28;20489;-64
2022/05/03 04:21:30;;;;;;;22.92;17.13;;;;;;;;;;5039600;28;20426;-65
2022/05/03 04:23:56;;;;;;;21.52;16.85;;;7.90;99.90;;;;;;5037963;28;20560;-65
2022/05/03 04:26:22;;;;;;;21.42;17.33;;;;;;;;;;5036854;28;20436;-65
2022/05/03 04:28:48;;;;;;;22.42;18.02;;;;;;;;;;5041334;28;20411;-65
2022/05/03 04:31:14;;;;;;;21.57;17.87;;;;;;;;;;5036458;28;20423;-66
2022/05/03 04:33:40;;;;;;;26.63;18.50;;;;;;;;;;5041822;28;20417;-66
2022/05/03 04:36:07;;;;;;;22.45;18.45;;;;;;;;;;5037355;28;20419;-65
2022/05/03 04:38:32;;;;;;;23.55;18.95;;;7.70;99.90;;;;;;5039305;28;20454;-65
2022/05/03 04:41:02;;;;;;;22.50;18.42;;;7.90;99.90;;;;;;5038020;28;20899;-65
2022/05/03 04:43:28;;;;;;;22.77;19.13;;;;;;;;;;5053834;28;20423;-65
2022/05/03 04:45:55;;;;;;;25.57;19.63;;;;;;;;;;5038378;28;20445;-66
2022/05/03 04:48:21;;;;;;;21.85;18.58;;;;;;;;;;5037581;28;20440;-66
2022/05/03 04:50:47;;;;;;;23.52;19.35;;;;;;;;;;5037685;28;20431;-65
2022/05/03 04:53:15;;;;;;;22.95;19.75;;;7.90;99.90;;;;;;5037767;28;20435;-65
2022/05/03 04:55:41;;;;;;;23.88;19.00;;;;;;;;;;5038483;28;20415;-65
2022/05/03 04:58:10;;;;;;;23.13;18.92;;;7.90;99.90;;;;;;5040456;28;20419;-66
2022/05/03 05:00:36;;;;;;;24.00;19.40;;;;;;;;;;5036285;28;20423;-66
2022/05/03 05:03:02;;;;;;;23.65;19.35;;;;;;;;;;5040499;28;20435;-66
2022/05/03 05:05:28;;;;;;;24.10;19.20;;;;;;;;;;5037810;28;20490;-66
2022/05/03 05:07:54;;;;;;;24.65;19.75;;;;;;;;;;5037469;28;20423;-65
2022/05/03 05:10:24;;;;;;;25.85;20.08;;;;;;;;;;5033276;28;20454;-66
2022/05/03 05:12:50;;;;;;;23.80;19.42;;;;;;;;;;5036634;28;20676;-65
2022/05/03 05:15:16;;;;;;;23.83;19.33;;;;;;;;;;5039787;28;20446;-65
2022/05/03 05:17:42;;;;;;;27.17;20.30;;;;;;;;;;5037914;28;20439;-66
2022/05/03 05:20:09;;;;;;;27.48;19.65;;;;;;;;;;5038614;28;20430;-66
2022/05/03 05:22:35;;;;;;;28.90;19.75;;;;;;;;;;5032011;28;20419;-65
2022/05/03 05:25:00;;;;;;;29.13;21.15;;;8.20;99.90;;;;;;5039491;28;20417;-66
2022/05/03 05:27:26;;;;;;;26.30;19.83;;;8.30;99.90;;;;;;5037731;28;20423;-66
2022/05/03 05:29:52;;;;;;;29.88;20.48;;;;;;;;;;5036436;28;20430;-65
2022/05/03 05:32:19;;;;;;;25.70;19.67;;;;;;;;;;5038326;28;20419;-64
2022/05/03 05:34:45;;;;;;;27.90;20.88;;;;;;;;;;5037165;28;20514;-65
2022/05/03 05:37:11;;;;;;;27.33;21.88;;;;;;;;;;5037728;28;20429;-65
2022/05/03 05:39:37;;;;;;;27.48;21.05;;;;;;;;;;5035623;28;20949;-65
2022/05/03 05:42:03;;;;;;;26.90;20.88;;;;;;;;;;5038880;28;20477;-66
2022/05/03 05:44:29;;;;;;;28.13;22.58;;;8.70;99.90;;;;;;5037054;28;20842;-65
2022/05/03 05:46:55;;;;;;;24.10;20.48;;;8.80;99.90;;;;;;5038224;28;20429;-65
2022/05/03 05:49:21;;;;;;;27.50;21.52;;;;;;;;;;5036536;28;20547;-69
2022/05/03 05:51:47;;;;;;;26.88;21.77;;;;;;;;;;5035423;28;20427;-65
2022/05/03 05:54:13;;;;;;;30.05;21.65;;;;;;;;;;5040084;28;20414;-64
2022/05/03 05:56:44;;;;;;;30.88;22.65;;;;;;;;;;5036098;28;20422;-66
2022/05/03 05:59:10;;;;;;;29.52;23.15;;;;;;;;;;5038107;28;20422;-66
2022/05/03 06:01:37;;;;;;;28.70;22.60;;;;;;;;;;5034221;28;20456;-66
2022/05/03 06:04:04;;;;;;;32.17;23.95;;;;;;;;;;5036535;28;20437;-66
2022/05/03 06:06:31;;;;;;;32.65;23.95;;;8.50;99.90;;;;;;5036673;28;20443;-66
2022/05/03 06:08:57;;;;;;;37.22;24.50;;;;;;;;;;5037105;28;20415;-66
2022/05/03 06:11:23;;;;;;;34.50;24.58;;;;;;;;;;5034341;28;20419;-66
2022/05/03 06:13:49;;;;;;;35.57;25.47;;;;;;;;;;5037111;28;20444;-66
2022/05/03 06:16:15;;;;;;;33.00;25.23;;;;;;;;;;5034110;28;20434;-66
2022/05/03 06:18:41;;;;;;;34.35;25.60;;;;;;;;;;5031994;28;20455;-66
2022/05/03 06:21:07;;;;;;;34.90;26.58;;;;;;;;;;5036234;28;20526;-66
2022/05/03 06:23:37;;;;;;;38.20;26.02;;;8.90;99.90;;;;;;5039375;28;20410;-63
2022/05/03 06:26:05;;;;;;;37.67;26.50;;;;;;;;;;5037297;28;20447;-65
2022/05/03 06:28:31;;;;;;;40.72;28.30;;;;;;;;;;5037987;28;20435;-65
2022/05/03 06:30:57;;;;;;;42.63;30.02;;;;;;;;;;5033668;28;20434;-65
2022/05/03 06:33:23;;;;;;;43.30;30.67;;;9.00;99.90;;;;;;5035231;28;20419;-66
2022/05/03 06:35:49;;;;;;;43.55;31.30;;;;;;;;;;5038201;28;20421;-65
2022/05/03 06:38:15;;;;;;;43.53;31.53;;;;;;;;;;5041667;28;20474;-64
2022/05/03 06:40:41;;;;;;;45.45;31.60;;;9.20;99.90;;;;;;5040235;28;20477;-64
2022/05/03 06:43:08;;;;;;;49.55;32.83;;;;;;;;;;5041422;28;20430;-66
2022/05/03 06:45:35;;;;;;;52.10;33.45;;;;;;;;;;5041398;28;20423;-66
2022/05/03 06:48:02;;;;;;;54.45;35.53;;;;;;;;;;5036322;28;20869;-66
2022/05/03 06:50:32;;;;;;;55.67;36.08;;;;;;;;;;5040695;28;20434;-65
2022/05/03 06:52:58;;;;;;;58.70;36.95;;;;;;;;;;5039049;28;20441;-66
2022/05/03 06:55:24;;;;;;;61.88;37.47;;;;;;;;;;5041747;28;20430;-66
2022/05/03 06:57:50;;;;;;;64.85;37.95;;;;;;;;;;5039957;28;20423;-67
2022/05/03 07:00:16;;;;;;;62.05;35.88;;;;;;;;;;5037001;28;20423;-66
2022/05/03 07:02:42;;;;;;;64.00;34.63;;;;;;;;;;5040153;28;20423;-66
2022/05/03 07:05:09;;;;;;;49.05;28.92;;;;;;;;;;5039818;28;20544;-67
2022/05/03 07:07:35;;;;;;;51.58;28.27;;;;;;;;;;5042114;28;20423;-66
2022/05/03 07:10:02;;;;;;;44.53;24.95;;;;;;;;;;5037749;28;20427;-66
2022/05/03 07:12:29;;;;;;;38.35;20.60;;;;;;;;;;5037526;28;20434;-66
2022/05/03 07:14:59;;;;;;;34.33;17.65;;;;;;;;;;5038603;28;20495;-67
2022/05/03 07:22:54;;;;;;;27.07;12.67;;;;;;;;;;5035321;28;20839;-67
2022/05/03 07:25:20;;;;;;;23.00;10.20;;;;;;;;;;5040081;28;20411;-67
2022/05/03 07:27:46;;;;;;;19.73;9.63;;;9.20;99.90;;;;;;5036512;28;20578;-66
2022/05/03 07:30:16;;;;;;;20.25;9.40;;;;;;;;;;5038408;28;20438;-67
2022/05/03 07:32:46;;;;;;;24.08;9.35;;;;;;;;;;5035397;28;20434;-67
2022/05/03 07:35:12;;;;;;;22.50;8.63;;;;;;;;;;5037208;28;20900;-67
2022/05/03 07:37:39;;;;;;;20.55;9.18;;;;;;;;;;5039639;28;20427;-67
2022/05/03 07:40:06;;;;;;;21.70;9.32;;;;;;;;;;5037653;28;20423;-68
2022/05/03 07:42:33;;;;;;;25.95;9.98;;;;;;;;;;5040194;28;20453;-67
2022/05/03 07:44:59;;;;;;;23.83;10.00;;;;;;;;;;5035089;28;20502;-67
2022/05/03 07:47:25;;;;;;;23.48;10.35;;;;;;;;;;5051522;28;20419;-65
2022/05/03 07:49:51;;;;;;;24.85;10.45;;;;;;;;;;5037383;28;20423;-66
2022/05/03 07:52:17;;;;;;;26.13;10.43;;;;;;;;;;5039481;28;20430;-66
2022/05/03 07:54:44;;;;;;;24.53;10.70;;;;;;;;;;5032889;28;20564;-66
2022/05/03 07:57:13;;;;;;;20.83;9.27;;;;;;;;;;5030746;28;20411;-65
2022/05/03 07:59:40;;;;;;;20.40;9.38;;;;;;;;;;5038506;28;20443;-66
2022/05/03 08:02:07;;;;;;;25.20;9.15;;;9.80;99.90;;;;;;5036297;28;20427;-65
2022/05/03 08:04:33;;;;;;;27.25;9.35;;;;;;;;;;5030479;28;20441;-67
2022/05/03 08:06:59;;;;;;;24.20;10.05;;;;;;;;;;5040780;28;20826;-65
2022/05/03 08:09:26;;;;;;;24.83;9.02;;;;;;;;;;5032335;28;20439;-66
2022/05/03 08:11:53;;;;;;;25.27;9.23;;;;;;;;;;5034521;28;20806;-66
2022/05/03 08:14:20;;;;;;;26.30;8.73;;;;;;;;;;5034459;28;20419;-66
2022/05/03 08:16:47;;;;;;;24.95;8.10;;;;;;;;;;5039641;28;20421;-67
2022/05/03 08:19:13;;;;;;;25.60;8.20;;;10.50;99.90;;;;;;5039498;28;20433;-66
2022/05/03 08:21:39;;;;;;;25.40;7.63;;;;;;;;;;5032909;28;20814;-66
2022/05/03 08:24:06;;;;;;;20.95;6.95;;;10.40;99.90;;;;;;5038214;28;20431;-66
2022/05/03 08:26:33;;;;;;;24.23;7.75;;;10.70;99.90;;;;;;5032808;28;20429;-66
2022/05/03 08:29:00;;;;;;;25.20;7.80;;;;;;;;;;5032899;28;20434;-65
2022/05/03 08:31:26;;;;;;;25.27;8.57;;;;;;;;;;5031249;28;20442;-65
2022/05/03 08:33:52;;;;;;;27.40;7.77;;;10.60;99.90;;;;;;5034960;28;20430;-66
2022/05/03 08:36:18;;;;;;;20.47;7.57;;;;;;;;;;5031136;28;20423;-67
2022/05/03 08:44:14;;;;;;;17.52;6.15;;;;;;;;;;5029845;28;21047;-68
2022/05/03 08:46:42;;;;;;;20.98;6.80;;;10.60;99.90;;;;;;5036987;28;20427;-68
2022/05/03 08:49:13;;;;;;;20.15;6.78;;;10.30;99.90;;;;;;5035210;28;20431;-67
2022/05/03 08:51:40;;;;;;;21.02;6.47;;;;;;;;;;5034898;28;22007;-67
2022/05/03 08:54:06;;;;;;;20.23;6.35;;;;;;;;;;5038670;28;20427;-68
2022/05/03 08:56:32;;;;;;;25.30;7.30;;;10.60;99.90;;;;;;5038458;28;20779;-68
2022/05/03 08:58:58;;;;;;;18.50;6.00;;;10.60;99.90;;;;;;5036572;28;20439;-68
2022/05/03 09:01:24;;;;;;;18.25;5.65;;;;;;;;;;5035961;28;20415;-68
2022/05/03 09:03:51;;;;;;;21.35;5.40;;;;;;;;;;5034571;28;20431;-67
2022/05/03 09:06:18;;;;;;;19.77;6.45;;;;;;;;;;5037772;28;20574;-67
2022/05/03 09:08:52;;;;;;;16.75;5.53;;;10.80;99.90;;;;;;5031440;28;20441;-68
2022/05/03 09:11:19;;;;;;;17.42;5.20;;;;;;;;;;5033252;28;20922;-67
2022/05/03 09:13:45;;;;;;;20.25;5.82;;;;;;;;;;5029850;28;20668;-67
2022/05/03 09:16:13;;;;;;;19.77;6.13;;;;;;;;;;5031521;28;20513;-67
2022/05/03 09:18:39;;;;;;;19.33;6.07;;;;;;;;;;5029580;28;20461;-67
2022/05/03 09:24:05;;;;;;;14.23;5.28;;;;;;;;;;5036879;28;20426;-67
2022/05/03 09:26:32;;;;;;;18.40;5.65;;;;;;;;;;5027592;28;20780;-68
2022/05/03 09:29:02;;;;;;;20.73;5.72;;;;;;;;;;5039256;28;20427;-67
2022/05/03 09:31:39;;;;;;;20.27;5.00;;;;;;;;;;5037021;28;20434;-67
2022/05/03 09:34:19;;;;;;;22.10;5.18;;;;;;;;;;5039223;28;20419;-66
2022/05/03 09:37:05;;;;;;;17.03;5.17;;;;;;;;;;5023410;28;20578;-65
2022/05/03 09:39:31;;;;;;;17.33;4.53;;;;;;;;;;5037127;28;20529;-66
2022/05/03 09:42:09;;;;;;;18.05;4.80;;;11.40;99.90;;;;;;5037959;28;20427;-66
2022/05/03 09:44:40;;;;;;;18.02;4.35;;;;;;;;;;5038862;28;20442;-66
2022/05/03 09:47:11;;;;;;;14.45;4.50;;;;;;;;;;5039166;28;20407;-68
2022/05/03 09:49:38;;;;;;;18.33;4.90;;;;;;;;;;5039411;28;20430;-66
2022/05/03 09:52:05;;;;;;;18.33;4.47;;;;;;;;;;5037772;28;20532;-66
2022/05/03 09:54:50;;;;;;;12.57;4.10;;;;;;;;;;5021756;28;20419;-66
2022/05/03 09:57:19;;;;;;;12.55;4.47;;;;;;;;;;5037082;28;20531;-67
2022/05/03 09:59:47;;;;;;;12.10;4.60;;;;;;;;;;5040135;28;20482;-66
2022/05/03 10:02:14;;;;;;;14.55;4.03;;;;;;;;;;5038421;28;20760;-67
2022/05/03 10:04:40;;;;;;;10.93;3.78;;;;;;;;;;5036573;28;20498;-67
2022/05/03 10:07:06;;;;;;;10.02;4.07;;;;;;;;;;5040171;28;20395;-68
2022/05/03 10:09:32;;;;;;;9.83;3.83;;;;;;;;;;5034087;28;20422;-67
2022/05/03 10:12:00;;;;;;;11.63;3.55;;;12.50;99.90;;;;;;5038701;28;20415;-67
2022/05/03 10:14:27;;;;;;;10.38;3.70;;;;;;;;;;5036748;28;20406;-66
2022/05/03 10:22:37;;;;;;;11.02;3.45;;;12.90;99.90;;;;;;5015212;28;20436;-67
2022/05/03 10:25:04;;;;;;;9.98;3.42;;;;;;;;;;5038645;28;20403;-67
2022/05/03 10:27:34;;;;;;;12.98;3.38;;;;;;;;;;5037540;28;20447;-66
2022/05/03 10:30:18;;;;;;;10.57;3.65;;;;;;;;;;5039056;28;20423;-67
2022/05/03 10:32:44;;;;;;;11.30;3.60;;;;;;;;;;5040076;28;20407;-67
2022/05/03 10:35:30;;;;;;;11.10;3.53;;;;;;;;;;5028445;28;20431;-67
2022/05/03 10:38:05;;;;;;;12.18;3.47;;;13.30;99.90;;;;;;5032822;28;20443;-68
2022/05/03 10:40:34;;;;;;;9.02;3.22;;;;;;;;;;5035807;28;20449;-66
2022/05/03 10:43:10;;;;;;;9.07;3.30;;;;;;;;;;5038342;28;20438;-67
2022/05/03 10:45:50;;;;;;;8.98;3.45;;;;;;;;;;5037034;28;20466;-67
2022/05/03 10:48:25;;;;;;;10.30;3.10;;;;;;;;;;5012398;28;20820;-67
2022/05/03 10:50:52;;;;;;;9.38;3.30;;;;;;;;;;5029179;28;20492;-66
2022/05/03 10:53:19;;;;;;;9.98;2.92;;;;;;;;;;5031289;28;20426;-66
2022/05/03 10:56:21;;;;;;;10.70;3.42;;;;;;;;;;5029990;28;20433;-67
2022/05/03 10:59:07;;;;;;;9.63;3.10;;;;;;;;;;5014889;28;20437;-66
2022/05/03 11:01:53;;;;;;;9.45;2.72;;;13.20;99.90;;;;;;5029863;28;20445;-67
2022/05/03 11:04:20;;;;;;;11.90;3.03;;;13.70;99.90;;;;;;5030139;28;20438;-66
2022/05/03 11:06:49;;;;;;;8.32;2.88;;;;;;;;;;5038533;28;20465;-66
2022/05/03 11:09:25;;;;;;;9.70;3.20;;;;;;;;;;5033912;28;20427;-66
2022/05/03 11:11:52;;;;;;;9.25;2.90;;;;;;;;;;5037506;28;20786;-66
2022/05/03 11:14:21;;;;;;;10.30;3.05;;;;;;;;;;5035521;28;20426;-65
2022/05/03 11:16:51;;;;;;;10.95;2.80;;;;;;;;;;5037358;28;20424;-66
2022/05/03 11:19:24;;;;;;;9.70;2.78;;;;;;;;;;5035657;28;20434;-65
2022/05/03 11:21:51;;;;;;;11.93;2.75;;;;;;;;;;5018295;28;20396;-66
2022/05/03 11:24:28;;;;;;;6.80;2.58;;;;;;;;;;5031508;28;20423;-66
2022/05/03 11:26:58;;;;;;;8.10;2.20;;;;;;;;;;5036531;28;20434;-66
2022/05/03 11:29:29;;;;;;;9.32;2.80;;;13.20;99.90;;;;;;5038507;28;20508;-65
2022/05/03 11:31:55;;;;;;;8.23;2.55;;;;;;;;;;5037352;28;20430;-64
2022/05/03 11:34:22;;;;;;;9.02;2.67;;;;;;;;;;5036437;28;20423;-65
2022/05/03 11:36:51;;;;;;;7.70;2.20;;;;;;;;;;5039055;28;20431;-66
2022/05/03 11:39:18;;;;;;;5.95;2.20;;;;;;;;;;5037174;28;20449;-65
2022/05/03 11:41:44;;;;;;;9.02;2.65;;;14.00;99.90;;;;;;5039234;28;20427;-66
2022/05/03 11:44:11;;;;;;;8.57;2.42;;;;;;;;;;5019075;28;20427;-66
2022/05/03 11:46:38;;;;;;;9.15;2.75;;;;;;;;;;5036566;28;20438;-66
2022/05/03 11:49:05;;;;;;;7.72;2.45;;;;;;;;;;5038611;28;20932;-65
2022/05/03 11:57:12;;;;;;;7.68;2.40;;;;;;;;;;5036874;28;20772;-66
2022/05/03 11:59:42;;;;;;;9.52;2.60;;;;;;;;;;5037780;28;20431;-66
2022/05/03 12:02:15;;;;;;;6.15;2.15;;;;;;;;;;5039862;28;20802;-67
2022/05/03 12:04:59;;;;;;;8.15;2.47;;;;;;;;;;5038366;28;20420;-67
2022/05/03 12:07:28;;;;;;;6.57;2.47;;;;;;;;;;5034429;28;20426;-67
2022/05/03 12:09:54;;;;;;;8.85;2.70;;;;;;;;;;5033398;28;20914;-66
2022/05/03 12:12:45;;;;;;;7.20;2.50;;;;;;;;;;5034605;28;20427;-66
2022/05/03 12:15:22;;;;;;;6.90;2.65;;;;;;;;;;5040229;28;20615;-66
2022/05/03 12:17:59;;;;;;;9.63;2.55;;;;;;;;;;5021070;28;20536;-65
2022/05/03 12:20:26;;;;;;;7.68;2.45;;;;;;;;;;5040268;28;20434;-66
2022/05/03 12:23:09;;;;;;;6.53;2.20;;;;;;;;;;5036608;28;20810;-66
2022/05/03 12:25:36;;;;;;;8.00;2.58;;;14.20;99.90;;;;;;5023959;28;20482;-66
2022/05/03 12:28:04;;;;;;;7.03;2.25;;;14.30;99.90;;;;;;5023865;28;20453;-66
2022/05/03 12:30:31;;;;;;;7.97;2.38;;;;;;;;;;5037293;28;20488;-65
2022/05/03 12:33:01;;;;;;;6.88;2.35;;;;;;;;;;5024143;28;20400;-65
2022/05/03 12:35:31;;;;;;;6.37;2.20;;;;;;;;;;5038156;28;20580;-66
2022/05/03 12:37:57;;;;;;;5.30;2.22;;;;;;;;;;5021350;28;20490;-65
2022/05/03 12:40:27;;;;;;;9.50;2.60;;;;;;;;;;5028648;28;20425;-66
2022/05/03 12:42:53;;;;;;;8.10;2.35;;;;;;;;;;5037141;28;20434;-65
2022/05/03 12:45:19;;;;;;;5.68;2.35;;;;;;;;;;5040610;28;20442;-66
2022/05/03 12:47:48;;;;;;;6.28;2.40;;;;;;;;;;5039051;28;20493;-66
2022/05/03 12:50:15;;;;;;;8.55;2.45;;;;;;;;;;5040612;28;20893;-66
2022/05/03 12:52:41;;;;;;;7.78;2.20;;;;;;;;;;5017558;28;20434;-66
2022/05/03 12:55:07;;;;;;;7.57;2.42;;;;;;;;;;5040096;28;20416;-68
2022/05/03 13:00:18;;;;;;;8.07;2.65;;;;;;;;;;5038470;28;20930;-66
2022/05/03 13:02:44;;;;;;;6.63;2.35;;;;;;;;;;5041069;28;20449;-66
2022/05/03 13:05:10;;;;;;;8.38;2.53;;;;;;;;;;5037242;28;20422;-67
2022/05/03 13:07:36;;;;;;;8.45;2.67;;;;;;;;;;5038951;28;20430;-67
2022/05/03 13:10:03;;;;;;;8.23;2.50;;;;;;;;;;5021235;28;20454;-67
2022/05/03 13:12:30;;;;;;;7.38;2.63;;;;;;;;;;5038322;28;20858;-66
2022/05/03 13:14:56;;;;;;;10.38;2.40;;;15.30;99.90;;;;;;5040439;28;20442;-66
2022/05/03 13:17:22;;;;;;;7.97;2.50;;;;;;;;;;5021058;28;20438;-66
2022/05/03 13:19:48;;;;;;;7.30;2.45;;;;;;;;;;5038938;28;20450;-68
2022/05/03 13:22:14;;;;;;;8.88;2.65;;;15.10;99.90;;;;;;5035997;28;20415;-66
2022/05/03 13:24:41;;;;;;;10.18;2.60;;;14.90;99.90;;;;;;5023113;28;20418;-67
2022/05/03 13:27:07;;;;;;;7.57;2.40;;;;;;;;;;5036777;28;20418;-66
2022/05/03 13:29:33;;;;;;;9.63;2.58;;;;;;;;;;5035812;28;20427;-66
2022/05/03 13:32:02;;;;;;;8.52;2.40;;;;;;;;;;5032859;28;20427;-66
2022/05/03 13:34:28;;;;;;;7.43;2.40;;;;;;;;;;5031861;28;21323;-68
2022/05/03 13:42:24;;;;;;;7.90;2.50;;;;;;;;;;5029264;28;20660;-67
2022/05/03 13:44:53;;;;;;;6.40;2.47;;;;;;;;;;5034189;28;20415;-65
2022/05/03 13:47:19;;;;;;;7.30;2.50;;;;;;;;;;5032521;28;20456;-66
2022/05/03 13:49:45;;;;;;;8.47;2.60;;;;;;;;;;5037501;28;20499;-66
2022/05/03 13:52:11;;;;;;;8.73;2.25;;;;;;;;;;5033804;28;20829;-66
2022/05/03 13:54:38;;;;;;;8.90;2.90;;;;;;;;;;5035597;28;20429;-65
2022/05/03 13:57:04;;;;;;;8.27;2.50;;;;;;;;;;5034675;28;20461;-66
2022/05/03 13:59:30;;;;;;;6.63;2.30;;;;;;;;;;5037348;28;20433;-67
2022/05/03 14:01:56;;;;;;;7.57;2.90;;;;;;;;;;5037761;28;20439;-67
2022/05/03 14:04:23;;;;;;;6.75;2.20;;;;;;;;;;5037638;28;20423;-66
2022/05/03 14:06:49;;;;;;;11.05;2.95;;;;;;;;;;5038749;28;20435;-68
2022/05/03 14:09:16;;;;;;;8.13;2.50;;;;;;;;;;5029132;28;20430;-66
2022/05/03 14:11:42;;;;;;;9.13;2.67;;;;;;;;;;5019088;28;20405;-67
2022/05/03 14:14:09;;;;;;;10.48;2.70;;;;;;;;;;5026005;28;20448;-66
2022/05/03 14:16:35;;;;;;;11.10;2.80;;;;;;;;;;5014873;28;20415;-66
2022/05/03 14:19:01;;;;;;;7.03;2.35;;;;;;;;;;5031590;28;20925;-65
2022/05/03 14:21:27;;;;;;;7.45;2.40;;;;;;;;;;5036063;28;20431;-66
2022/05/03 14:23:53;;;;;;;7.80;2.20;;;;;;;;;;5033091;28;20434;-66
2022/05/03 14:26:19;;;;;;;8.07;2.45;;;14.20;99.90;;;;;;5035809;28;20447;-66
2022/05/03 14:28:48;;;;;;;8.07;2.30;;;;;;;;;;5019223;28;20618;-67
2022/05/03 14:31:14;;;;;;;7.35;2.22;;;;;;;;;;5029779;28;20808;-66
2022/05/03 14:33:41;;;;;;;9.15;2.70;;;;;;;;;;5014334;28;20431;-67
2022/05/03 14:36:07;;;;;;;9.15;2.80;;;;;;;;;;5036461;28;20498;-66
2022/05/03 14:38:33;;;;;;;6.50;2.47;;;14.60;99.90;;;;;;5016508;28;20427;-66
2022/05/03 14:40:59;;;;;;;9.80;3.03;;;;;;;;;;5034666;28;20451;-67
2022/05/03 14:43:25;;;;;;;7.57;2.35;;;;;;;;;;5037643;28;20839;-67
2022/05/03 14:45:51;;;;;;;8.77;2.60;;;;;;;;;;5035634;28;20424;-67
2022/05/03 14:48:18;;;;;;;6.82;2.60;;;;;;;;;;5032215;28;20661;-67
2022/05/03 14:50:44;;;;;;;9.15;2.50;;;;;;;;;;5035259;28;20435;-67
2022/05/03 14:53:10;;;;;;;6.88;2.38;;;;;;;;;;5038162;28;20480;-67
2022/05/03 14:55:37;;;;;;;7.30;2.30;;;;;;;;;;5031134;28;20431;-66
2022/05/03 15:03:35;;;;;;;8.52;2.83;;;;;;;;;;5040026;28;20422;-67
2022/05/03 15:06:02;;;;;;;8.00;2.45;;;;;;;;;;5021785;28;20442;-65